Time;durP1;ratioP1;P1;durP2;ratioP2;P2;SDS_P1;SDS_P2;PMS_P1;PMS_P2;Temp;Humidity;BMP_temperature;BMP_pressure;BME280_temperature;BME280_humidity;BME280_pressure;Samples;Min_cycle;Max_cycle;Signal;HPM_P1;HPM_P2
2022/07/28 00:01:12;;;;;;;7.57;6.85;;;;;;;24.01;54.08;94756.25;5116822;28;20290;-68
2022/07/28 00:03:38;;;;;;;7.80;7.00;;;;;;;24.05;54.15;94764.59;5117453;28;20192;-68
2022/07/28 00:06:05;;;;;;;7.20;6.53;;;;;;;24.07;54.03;94765.72;5117376;28;20214;-68
2022/07/28 00:08:33;;;;;;;7.68;6.97;;;;;;;24.05;53.93;94761.78;5116892;28;20199;-68
2022/07/28 00:11:00;;;;;;;7.43;6.82;;;;;;;24.03;54.15;94773.50;5116532;28;20224;-68
2022/07/28 00:13:27;;;;;;;7.63;6.93;;;;;;;24.02;54.72;94783.97;5117302;28;20184;-68
2022/07/28 00:15:54;;;;;;;7.60;7.00;;;;;;;24.00;55.47;94782.84;5116769;28;20195;-68
2022/07/28 00:18:20;;;;;;;7.65;7.05;;;;;;;23.99;56.19;94793.31;5117477;28;20214;-68
2022/07/28 00:20:47;;;;;;;8.23;7.53;;;;;;;24.00;56.16;94802.53;5118265;27;20176;-68
2022/07/28 00:23:14;;;;;;;8.00;7.18;;;;;;;23.93;57.92;94799.94;5117703;28;20590;-68
2022/07/28 00:25:43;;;;;;;8.88;7.60;;;;;;;23.84;59.79;94777.28;5117333;28;20202;-68
2022/07/28 00:28:10;;;;;;;11.35;8.57;;;;;;;23.66;63.85;94753.22;5117685;28;20278;-68
2022/07/28 00:30:37;;;;;;;11.15;8.25;;;;;;;23.48;65.98;94747.28;5117587;28;20216;-68
2022/07/28 00:33:04;;;;;;;9.23;8.32;;;;;;;23.21;66.00;94742.00;5117908;28;20191;-68
2022/07/28 00:35:30;;;;;;;10.50;7.85;;;;;;;23.09;66.79;94743.50;5116660;28;20192;-68
2022/07/28 00:37:57;;;;;;;12.77;8.45;;;;;;;22.99;67.99;94736.97;5117054;28;20201;-68
2022/07/28 00:41:09;;;;;;;9.07;8.27;;;;;;;22.96;68.93;94742.66;5116154;28;20200;-68
2022/07/28 00:43:13;;;;;;;9.13;7.80;;;;;;;22.89;68.07;94731.56;5116804;28;20203;-68
2022/07/28 00:45:40;;;;;;;8.30;7.57;;;;;;;22.82;68.94;94753.00;5117599;28;20207;-68
2022/07/28 00:48:08;;;;;;;8.55;7.70;;;;;;;22.81;67.53;94759.88;5117631;28;20184;-68
2022/07/28 00:50:35;;;;;;;9.18;8.07;;;;;;;22.83;67.38;94767.84;5099499;28;20273;-68
2022/07/28 00:53:02;;;;;;;8.32;7.63;;;;;;;22.79;67.94;94769.97;5116414;28;20207;-68
2022/07/28 00:55:28;;;;;;;9.40;7.90;;;;;;;22.77;68.55;94778.84;5116906;28;20226;-67
2022/07/28 00:57:55;;;;;;;9.77;8.05;;;;;;;22.72;70.99;94773.75;5118275;28;20614;-68
2022/07/28 01:00:24;;;;;;;9.18;8.38;;;;;;;22.59;70.83;94784.13;5117514;28;20206;-68
2022/07/28 01:02:51;;;;;;;8.80;7.78;;;;;;;22.58;71.24;94779.69;5118078;28;20175;-68
2022/07/28 01:05:18;;;;;;;8.77;7.97;;;;;;;22.56;70.66;94788.59;5118152;28;20195;-68
2022/07/28 01:07:52;;;;;;;8.05;7.28;;;;;;;22.58;68.47;94796.56;5116045;28;20199;-68
2022/07/28 01:10:24;;;;;;;7.78;7.05;;;;;;;22.58;68.45;94799.38;5115735;28;20188;-68
2022/07/28 01:12:56;;;;;;;8.57;7.88;;;;;;;22.55;69.27;94803.88;5116463;28;20191;-68
2022/07/28 01:15:28;;;;;;;8.27;7.47;;;;;;;22.59;68.13;94812.22;5116369;28;20195;-68
2022/07/28 01:18:02;;;;;;;8.32;7.63;;;;;;;22.65;68.98;94804.03;5117054;28;20199;-68
2022/07/28 01:20:34;;;;;;;8.07;7.40;;;;;;;22.59;70.02;94798.97;5117216;28;20183;-68
2022/07/28 01:23:49;;;;;;;8.35;7.68;;;;;;;22.54;69.38;94788.22;5117760;28;20200;-68
2022/07/28 01:26:28;;;;;;;8.68;7.97;;;;;;;22.48;71.26;94781.56;5056091;28;20211;-68
2022/07/28 01:29:04;;;;;;;8.15;7.45;;;;;;;22.44;70.58;94778.03;5116505;28;20191;-68
2022/07/28 01:31:38;;;;;;;8.00;7.30;;;;;;;22.43;69.30;94778.47;5116283;28;20226;-68
2022/07/28 01:34:07;;;;;;;8.75;7.30;;;;;;;22.40;69.76;94771.69;5116748;28;20202;-68
2022/07/28 01:36:39;;;;;;;8.23;7.43;;;;;;;22.32;68.87;94773.88;5116448;28;20622;-68
2022/07/28 01:39:05;;;;;;;9.02;7.57;;;;;;;22.35;70.43;94767.38;5116755;28;20200;-68
2022/07/28 01:41:33;;;;;;;7.72;7.13;;;;;;;22.29;72.14;94773.97;5117077;28;20206;-68
2022/07/28 01:44:03;;;;;;;8.70;7.90;;;;;;;22.28;70.86;94778.00;5117092;28;20175;-68
2022/07/28 01:46:32;;;;;;;8.27;7.57;;;;;;;22.39;69.29;94780.56;5116015;28;20187;-68
2022/07/28 01:48:59;;;;;;;8.57;7.78;;;;;;;22.48;67.76;94773.13;5116433;28;20206;-68
2022/07/28 01:51:30;;;;;;;8.32;7.63;;;;;;;22.49;67.59;94771.91;5116272;28;20220;-68
2022/07/28 01:53:59;;;;;;;8.25;7.50;;;;;;;22.44;69.67;94780.84;5117298;28;20614;-68
2022/07/28 01:56:27;;;;;;;8.35;7.63;;;;;;;22.53;67.54;94766.97;5116158;28;20232;-68
2022/07/28 01:58:55;;;;;;;8.15;7.53;;;;;;;22.54;67.60;94770.56;5115059;28;20554;-68
2022/07/28 02:01:24;;;;;;;8.60;7.80;;;;;;;22.57;66.41;94767.69;5115426;28;20256;-68
2022/07/28 02:03:54;;;;;;;8.10;7.30;;;;;;;22.58;66.47;94766.44;5115325;28;20187;-68
2022/07/28 02:06:23;;;;;;;7.95;7.35;;;;;;;22.53;69.46;94772.59;5114985;28;20191;-68
2022/07/28 02:08:51;;;;;;;8.30;7.60;;;;;;;22.47;70.39;94777.16;5115688;28;20256;-68
2022/07/28 02:14:03;;;;;;;8.40;7.60;;;;;;;22.40;71.52;94799.78;5115088;28;20188;-68
2022/07/28 02:16:30;;;;;;;9.60;8.80;;;;;;;22.36;72.86;94799.09;5114659;28;20271;-68
2022/07/28 02:18:59;;;;;;;9.07;8.35;;;;;;;22.21;73.57;94801.41;5115726;28;20183;-68
2022/07/28 02:21:27;;;;;;;9.30;8.60;;;;;;;22.14;73.86;94793.16;5115139;28;20207;-68
2022/07/28 02:23:55;;;;;;;8.75;7.95;;;;;;;22.14;72.40;94798.78;5115574;28;20195;-68
2022/07/28 02:26:25;;;;;;;8.02;7.32;;;;;;;22.24;68.36;94792.13;5116802;28;20199;-68
2022/07/28 02:28:53;;;;;;;8.77;7.93;;;;;;;22.29;67.83;94788.78;5115570;28;20199;-68
2022/07/28 02:31:23;;;;;;;8.30;7.30;;;;;;;22.34;67.45;94791.09;5117114;28;20212;-68
2022/07/28 02:33:51;;;;;;;10.50;8.07;;;;;;;22.34;68.68;94802.34;5116197;28;20210;-68
2022/07/28 02:36:26;;;;;;;9.13;8.23;;;;;;;22.19;70.62;94787.03;5114623;28;20188;-68
2022/07/28 02:38:55;;;;;;;8.63;7.82;;;;;;;22.17;71.93;94780.25;5114601;28;20202;-68
2022/07/28 02:41:26;;;;;;;8.73;8.02;;;;;;;22.15;71.12;94779.91;5115342;28;20184;-68
2022/07/28 02:43:57;;;;;;;8.85;8.15;;;;;;;22.12;71.28;94775.94;5115166;28;20200;-68
2022/07/28 02:46:25;;;;;;;8.60;7.90;;;;;;;;;;5114156;28;20612;-68
2022/07/28 02:48:55;;;;;;;9.85;9.00;;;;;;;22.13;69.55;94796.38;5114162;28;20197;-68
2022/07/28 02:51:25;;;;;;;10.30;9.30;;;;;;;22.13;70.88;94794.34;5115648;28;20212;-68
2022/07/28 02:53:52;;;;;;;8.90;8.02;;;;;;;22.14;69.69;94793.16;5115216;28;20196;-68
2022/07/28 02:56:19;;;;;;;8.40;7.70;;;;;;;22.23;67.73;94801.00;5114755;28;20243;-68
2022/07/28 02:58:46;;;;;;;8.88;8.18;;;;;;;22.29;66.46;94802.06;5115998;28;20196;-68
2022/07/28 03:01:17;;;;;;;8.15;7.55;;;;;;;22.31;66.08;94794.78;5115454;28;20249;-68
2022/07/28 03:03:46;;;;;;;9.02;8.30;;;;;;;22.38;66.06;94782.59;5117569;28;20187;-68
2022/07/28 03:06:13;;;;;;;9.43;8.63;;;;;;;22.40;66.15;94784.94;5118063;28;20183;-68
2022/07/28 03:08:41;;;;;;;9.77;8.98;;;;;;;22.45;65.95;94784.44;5118789;28;20194;-69
2022/07/28 03:11:09;;;;;;;9.75;8.85;;;;;;;22.47;66.85;94793.22;5118103;28;20198;-69
2022/07/28 03:13:36;;;;;;;9.20;8.40;;;;;;;22.40;67.80;94779.34;5119062;28;20191;-68
2022/07/28 03:16:03;;;;;;;9.07;8.25;;;;;;;22.37;68.20;94778.22;5118974;28;20195;-68
2022/07/28 03:18:30;;;;;;;9.40;8.60;;;;;;;22.32;68.81;94770.28;5118691;28;20188;-69
2022/07/28 03:20:57;;;;;;;9.55;8.65;;;;;;;22.32;69.09;94784.31;5118241;28;20522;-68
2022/07/28 03:23:28;;;;;;;9.25;8.45;;;;;;;22.31;69.45;94777.94;5119833;28;20188;-69
2022/07/28 03:26:01;;;;;;;9.50;8.63;;;;;;;22.30;69.83;94773.53;5119622;28;20196;-68
2022/07/28 03:28:29;;;;;;;9.43;8.63;;;;;;;22.26;70.62;94767.22;5118494;28;20176;-68
2022/07/28 03:31:00;;;;;;;9.27;8.50;;;;;;;22.25;71.08;94764.81;5539918;22;20241;-68
2022/07/28 03:33:31;;;;;;;9.68;8.77;;;;;;;22.21;71.47;94755.69;5057376;28;20189;-67
2022/07/28 03:36:02;;;;;;;9.15;8.40;;;;;;;22.21;71.40;94747.28;5057326;28;20182;-68
2022/07/28 03:38:36;;;;;;;9.85;9.05;;;;;;;22.20;71.71;94754.13;5056907;28;20214;-69
2022/07/28 03:41:08;;;;;;;9.70;8.90;;;;;;;22.13;71.72;94755.03;5056553;28;20197;-67
2022/07/28 03:43:37;;;;;;;9.55;8.65;;;;;;;22.09;72.65;94763.53;5057742;28;20240;-68
2022/07/28 03:46:07;;;;;;;9.10;8.20;;;;;;;22.13;71.82;94754.25;5056796;28;20212;-68
2022/07/28 03:48:35;;;;;;;9.77;8.80;;;;;;;22.17;72.13;94743.75;5056624;28;20537;-68
2022/07/28 03:51:03;;;;;;;9.82;8.93;;;;;;;22.22;71.72;94726.38;5057015;28;20500;-68
2022/07/28 03:53:34;;;;;;;8.75;7.50;;;;;;;22.42;69.96;94710.25;5057330;28;20197;-68
2022/07/28 03:56:02;;;;;;;9.60;8.70;;;;;;;22.70;68.93;94708.75;5056431;28;20202;-68
2022/07/28 03:58:31;;;;;;;9.45;8.55;;;;;;;23.18;67.13;94723.22;5073330;28;20232;-68
2022/07/28 04:01:00;;;;;;;9.43;8.63;;;;;;;23.42;65.85;94735.81;5056320;28;20592;-68
2022/07/28 04:03:29;;;;;;;9.57;8.68;;;;;;;23.67;65.12;94740.72;5055986;28;20209;-68
2022/07/28 04:05:58;;;;;;;10.20;9.38;;;;;;;23.83;64.00;94748.34;5072891;28;20186;-68
2022/07/28 04:08:24;;;;;;;10.40;9.40;;;;;;;23.99;63.65;94755.91;5056768;28;20223;-68
2022/07/28 04:10:53;;;;;;;10.02;9.13;;;;;;;23.90;64.52;94761.44;5057020;28;20197;-68
2022/07/28 04:13:21;;;;;;;13.40;12.10;;;;;;;23.81;64.12;94764.88;5056603;28;20248;-68
2022/07/28 04:15:54;;;;;;;14.27;12.80;;;;;;;23.95;63.84;94749.59;5057257;28;20189;-68
2022/07/28 04:18:23;;;;;;;10.15;9.25;;;;;;;24.00;63.40;94749.03;5056004;28;20198;-68
2022/07/28 04:20:51;;;;;;;10.48;8.90;;;;;;;24.07;63.03;94756.47;5056183;28;20198;-68
2022/07/28 04:23:22;;;;;;;9.10;8.30;;;;;;;24.08;62.83;94767.31;5055915;28;20202;-67
2022/07/28 04:25:49;;;;;;;9.75;8.85;;;;;;;23.74;64.35;94791.22;5055647;28;20198;-68
2022/07/28 04:28:17;;;;;;;10.27;9.38;;;;;;;23.40;65.68;94805.00;5055855;28;20193;-69
2022/07/28 04:30:44;;;;;;;10.23;8.38;;;;;;;23.11;66.29;94799.34;5055874;28;20198;-70
2022/07/28 04:33:14;;;;;;;10.32;9.38;;;;;;;22.81;68.02;94790.81;5056658;28;20214;-70
2022/07/28 04:35:41;;;;;;;9.88;8.90;;;;;;;22.52;69.48;94804.75;5072773;28;20197;-70
2022/07/28 04:38:10;;;;;;;11.85;10.75;;;;;;;22.27;70.89;94810.94;5056255;28;20628;-69
2022/07/28 04:40:39;;;;;;;10.40;9.50;;;;;;;22.16;70.83;94801.16;5055431;28;20252;-70
2022/07/28 04:43:07;;;;;;;10.65;9.73;;;;;;;22.15;71.37;94789.13;5056137;28;20198;-69
2022/07/28 04:45:36;;;;;;;10.18;9.27;;;;;;;22.00;71.80;94799.81;5073043;28;20206;-69
2022/07/28 04:48:03;;;;;;;9.27;8.57;;;;;;;21.93;73.87;94830.88;5055377;28;20197;-69
2022/07/28 04:50:33;;;;;;;9.82;9.02;;;;;;;21.88;73.56;94831.38;5055538;28;20198;-69
2022/07/28 04:53:00;;;;;;;10.50;9.45;;;;;;;21.91;74.14;94824.13;5055755;28;20209;-69
2022/07/28 04:55:31;;;;;;;10.32;9.32;;;;;;;21.91;73.71;94830.53;5055892;28;20201;-69
2022/07/28 04:58:02;;;;;;;10.40;9.50;;;;;;;21.88;74.42;94834.97;5072752;28;20232;-69
2022/07/28 05:00:31;;;;;;;10.32;9.43;;;;;;;21.78;74.31;94835.97;5056091;28;20305;-69
2022/07/28 05:03:01;;;;;;;10.27;9.30;;;;;;;21.79;73.84;94820.75;5055021;28;20535;-70
2022/07/28 05:05:31;;;;;;;10.35;9.45;;;;;;;21.85;73.94;94795.75;5056009;28;20625;-69
2022/07/28 05:08:00;;;;;;;9.82;9.02;;;;;;;21.91;73.48;94782.78;5055047;28;20201;-69
2022/07/28 05:10:31;;;;;;;10.65;9.70;;;;;;;21.92;73.64;94798.41;5071597;28;20201;-70
2022/07/28 05:12:57;;;;;;;11.02;10.02;;;;;;;21.86;75.07;94805.78;5054788;28;20268;-69
2022/07/28 05:15:25;;;;;;;10.32;9.43;;;;;;;21.80;74.04;94819.50;5054832;28;20209;-70
2022/07/28 05:17:52;;;;;;;10.98;10.00;;;;;;;21.78;73.52;94827.56;5055385;28;20197;-70
2022/07/28 05:20:20;;;;;;;11.18;10.13;;;;;;;21.74;74.81;94831.66;5054951;28;20197;-70
2022/07/28 05:22:49;;;;;;;10.45;9.55;;;;;;;21.71;74.83;94824.88;5054740;28;20515;-70
2022/07/28 05:25:20;;;;;;;11.60;10.50;;;;;;;21.68;74.48;94828.59;5070401;28;20219;-69
2022/07/28 05:27:49;;;;;;;11.27;10.30;;;;;;;21.74;73.87;94840.09;5054807;28;20205;-69
2022/07/28 05:30:17;;;;;;;10.93;9.93;;;;;;;21.79;73.69;94839.59;5054691;28;20296;-69
2022/07/28 05:32:45;;;;;;;11.52;10.18;;;;;;;21.82;74.28;94827.47;5071053;28;20683;-69
2022/07/28 05:35:12;;;;;;;9.90;9.05;;;;;;;21.85;72.99;94818.19;5054154;28;20206;-69
2022/07/28 05:37:40;;;;;;;10.45;9.50;;;;;;;21.84;74.29;94828.66;5054615;28;20213;-69
2022/07/28 05:40:12;;;;;;;11.65;10.60;;;;;;;21.84;74.79;94844.69;5071279;28;20209;-70
2022/07/28 05:42:41;;;;;;;11.38;10.38;;;;;;;21.80;73.11;94839.16;5054258;28;20257;-69
2022/07/28 05:45:09;;;;;;;11.68;10.48;;;;;;;21.84;73.27;94830.66;5055053;28;20205;-69
2022/07/28 05:47:45;;;;;;;10.70;9.70;;;;;;;21.90;73.19;94828.16;5054432;28;20205;-69
2022/07/28 05:50:14;;;;;;;10.57;9.57;;;;;;;21.87;72.77;94819.38;5055257;28;20193;-69
2022/07/28 05:52:42;;;;;;;10.80;9.90;;;;;;;21.84;72.58;94830.66;5054650;28;20217;-69
2022/07/28 05:55:10;;;;;;;11.55;10.45;;;;;;;21.84;73.54;94830.66;5070996;28;20613;-69
2022/07/28 05:57:42;;;;;;;10.57;9.68;;;;;;;21.84;72.61;94819.44;5054759;28;20186;-69
2022/07/28 06:00:12;;;;;;;11.15;10.20;;;;;;;21.89;72.51;94821.72;5055153;28;20205;-69
2022/07/28 06:02:40;;;;;;;11.75;10.65;;;;;;;21.88;73.95;94820.94;5054300;28;20194;-69
2022/07/28 06:05:09;;;;;;;12.27;10.18;;;;;;;21.88;74.19;94818.13;5054152;28;20194;-71
2022/07/28 06:07:39;;;;;;;11.25;10.25;;;;;;;21.88;73.02;94814.53;5054961;28;20182;-70
2022/07/28 06:10:06;;;;;;;11.45;10.43;;;;;;;21.86;73.01;94820.59;5054987;28;20292;-70
2022/07/28 06:12:42;;;;;;;11.13;10.23;;;;;;;21.84;72.82;94825.06;5054064;28;20213;-70
2022/07/28 06:15:19;;;;;;;12.25;11.13;;;;;;;21.84;74.15;94825.06;5054254;28;20203;-70
2022/07/28 06:17:47;;;;;;;13.82;11.52;;;;;;;21.88;72.97;94808.91;5054700;28;20202;-71
2022/07/28 06:20:17;;;;;;;11.40;10.40;;;;;;;21.85;71.55;94804.94;5055074;28;20188;-70
2022/07/28 06:22:48;;;;;;;12.48;11.27;;;;;;;21.95;72.79;94802.38;5054056;28;20205;-70
2022/07/28 06:25:15;;;;;;;11.98;10.85;;;;;;;21.97;72.72;94817.56;5054905;28;20248;-69
2022/07/28 06:27:45;;;;;;;12.68;11.57;;;;;;;22.00;71.38;94827.13;5054145;28;20208;-70
2022/07/28 06:30:16;;;;;;;13.85;12.18;;;;;;;22.01;71.69;94829.50;5053964;28;20240;-70
2022/07/28 06:32:43;;;;;;;12.50;11.30;;;;;;;22.03;70.24;94820.66;5053430;28;20240;-70
2022/07/28 06:35:15;;;;;;;12.77;11.63;;;;;;;22.04;70.43;94828.66;5054817;28;20201;-70
2022/07/28 06:37:43;;;;;;;12.65;11.45;;;;;;;22.04;70.20;94833.44;5057609;28;20259;-70
2022/07/28 06:40:14;;;;;;;11.85;10.57;;;;;;;22.06;69.40;94829.00;5058077;28;20194;-70
2022/07/28 06:42:43;;;;;;;13.13;11.98;;;;;;;22.09;69.54;94822.50;5058520;28;20632;-70
2022/07/28 06:45:12;;;;;;;11.82;10.82;;;;;;;22.09;69.96;94816.13;5057711;28;20198;-70
2022/07/28 06:47:42;;;;;;;13.20;11.90;;;;;;;22.17;70.59;94823.19;5057932;28;20205;-70
2022/07/28 06:50:10;;;;;;;12.43;11.23;;;;;;;22.19;69.84;94822.75;5057886;28;20205;-70
2022/07/28 06:52:41;;;;;;;12.27;11.20;;;;;;;22.25;70.60;94818.19;5058322;28;20217;-70
2022/07/28 06:55:10;;;;;;;12.93;11.73;;;;;;;22.33;70.07;94826.06;5057542;28;20209;-70
2022/07/28 06:57:38;;;;;;;12.50;11.30;;;;;;;22.43;69.68;94824.22;5057734;28;20198;-70
2022/07/28 07:00:07;;;;;;;12.90;11.68;;;;;;;22.51;69.24;94811.59;5057496;28;20521;-70
2022/07/28 07:02:38;;;;;;;14.10;12.80;;;;;;;22.59;69.24;94820.66;5057410;28;20304;-70
2022/07/28 07:05:10;;;;;;;12.40;11.35;;;;;;;22.57;67.54;94818.25;5058130;28;20197;-70
2022/07/28 07:07:37;;;;;;;12.93;11.60;;;;;;;22.59;67.69;94823.47;5057443;28;20196;-70
2022/07/28 07:10:06;;;;;;;13.15;11.90;;;;;;;22.64;67.84;94822.94;5057070;28;20210;-70
2022/07/28 07:12:34;;;;;;;12.18;11.07;;;;;;;22.69;67.01;94828.03;5056738;28;20237;-70
2022/07/28 07:15:05;;;;;;;12.98;11.77;;;;;;;22.76;66.97;94827.84;5057173;28;20255;-70
2022/07/28 07:17:33;;;;;;;13.95;12.65;;;;;;;22.74;66.29;94823.91;5058328;28;20186;-70
2022/07/28 07:20:01;;;;;;;14.32;13.00;;;;;;;22.72;66.62;94823.56;5056786;28;20198;-70
2022/07/28 07:22:34;;;;;;;14.70;13.20;;;;;;;22.75;67.77;94825.50;5056916;28;20194;-70
2022/07/28 07:25:11;;;;;;;13.93;12.65;;;;;;;22.78;68.36;94827.44;5057889;28;20198;-70
2022/07/28 07:27:39;;;;;;;13.20;12.02;;;;;;;22.79;68.31;94829.78;5056948;28;20219;-70
2022/07/28 07:30:08;;;;;;;15.70;14.27;;;;;;;22.79;68.37;94826.97;5056998;28;20216;-70
2022/07/28 07:32:37;;;;;;;13.00;11.90;;;;;;;22.83;68.95;94832.53;5056598;28;20245;-70
2022/07/28 07:35:07;;;;;;;12.93;11.73;;;;;;;22.86;67.58;94836.50;5056443;28;20204;-70
2022/07/28 07:37:36;;;;;;;13.35;12.10;;;;;;;22.89;67.21;94842.03;5056913;28;20209;-70
2022/07/28 07:40:07;;;;;;;14.68;13.35;;;;;;;22.91;67.96;94850.00;5057764;28;20190;-70
2022/07/28 07:42:33;;;;;;;13.38;12.18;;;;;;;22.94;67.55;94844.31;5056698;28;20198;-70
2022/07/28 07:45:02;;;;;;;13.48;12.18;;;;;;;22.95;67.84;94848.75;5056240;28;20202;-69
2022/07/28 07:47:33;;;;;;;13.88;12.48;;;;;;;22.98;67.84;94858.31;5056315;28;20194;-69
2022/07/28 07:50:01;;;;;;;14.00;12.70;;;;;;;22.97;66.56;94854.72;5056228;28;20208;-69
2022/07/28 07:52:32;;;;;;;13.07;11.88;;;;;;;23.00;66.34;94859.47;5056038;28;20625;-69
2022/07/28 07:55:04;;;;;;;12.82;11.65;;;;;;;23.08;65.81;94862.88;5057430;28;20213;-70
2022/07/28 07:57:33;;;;;;;12.95;11.85;;;;;;;23.11;65.99;94869.66;5056064;28;20699;-70
2022/07/28 08:00:01;;;;;;;13.85;12.52;;;;;;;23.18;65.80;94866.69;5056103;28;20609;-70
2022/07/28 08:02:31;;;;;;;13.55;12.32;;;;;;;23.20;66.31;94869.81;5056566;28;20198;-69
2022/07/28 08:05:00;;;;;;;12.65;11.55;;;;;;;23.19;66.51;94874.66;5056199;28;20197;-69
2022/07/28 08:07:28;;;;;;;13.10;11.90;;;;;;;23.23;66.70;94864.09;5056167;28;20229;-69
2022/07/28 08:09:56;;;;;;;13.30;12.10;;;;;;;23.26;66.31;94863.22;5056645;28;20201;-69
2022/07/28 08:12:26;;;;;;;12.35;11.35;;;;;;;23.26;65.86;94865.25;5056756;28;20593;-69
2022/07/28 08:14:55;;;;;;;12.63;11.52;;;;;;;23.25;65.43;94863.69;5056828;28;20216;-69
2022/07/28 08:17:26;;;;;;;11.98;10.98;;;;;;;23.28;64.97;94863.59;5055843;28;20202;-69
2022/07/28 08:19:54;;;;;;;15.23;13.80;;;;;;;23.29;65.96;94864.38;5056231;28;20233;-69
2022/07/28 08:22:20;;;;;;;13.85;12.52;;;;;;;23.30;65.90;94865.94;5056584;28;20628;-69
2022/07/28 08:24:49;;;;;;;14.15;12.80;;;;;;;23.28;65.59;94877.66;5056733;28;20507;-69
2022/07/28 08:27:16;;;;;;;13.32;12.13;;;;;;;23.27;65.26;94869.66;5055133;28;20213;-69
2022/07/28 08:29:46;;;;;;;11.82;10.82;;;;;;;23.28;66.00;94880.47;5055660;28;20652;-69
2022/07/28 08:32:14;;;;;;;13.02;11.88;;;;;;;23.29;64.68;94882.06;5055318;28;20225;-69
2022/07/28 08:34:42;;;;;;;12.63;11.43;;;;;;;23.35;64.84;94887.94;5055539;28;20225;-69
2022/07/28 08:37:11;;;;;;;12.32;11.13;;;;;;;23.39;64.40;94890.69;5055481;28;20198;-69
2022/07/28 08:39:39;;;;;;;11.73;10.70;;;;;;;23.44;64.38;94892.94;5055651;28;20198;-69
2022/07/28 08:42:07;;;;;;;11.98;11.00;;;;;;;23.49;64.00;94886.78;5056463;28;20185;-69
2022/07/28 08:44:41;;;;;;;11.70;10.80;;;;;;;23.53;64.13;94888.28;5056440;28;20205;-69
2022/07/28 08:47:14;;;;;;;12.57;11.40;;;;;;;23.59;63.77;94888.53;5055160;28;20617;-69
2022/07/28 08:49:45;;;;;;;12.60;11.48;;;;;;;23.66;63.36;94893.97;5055436;28;20190;-69
2022/07/28 08:52:13;;;;;;;11.82;10.80;;;;;;;23.70;63.50;94889.06;5055626;28;20280;-69
2022/07/28 08:54:44;;;;;;;11.13;10.10;;;;;;;23.74;63.73;94901.03;5054726;28;20228;-69
2022/07/28 08:57:19;;;;;;;12.00;10.95;;;;;;;23.77;63.40;94907.81;5055397;28;20536;-69
2022/07/28 09:00:14;;;;;;;12.63;11.48;;;;;;;23.80;62.45;94909.72;5054382;28;20197;-70
2022/07/28 09:02:45;;;;;;;12.60;11.50;;;;;;;23.78;62.38;94896.09;5038468;28;20263;-70
2022/07/28 09:05:13;;;;;;;12.23;11.23;;;;;;;23.77;62.43;94896.53;5055221;28;20290;-70
2022/07/28 09:07:43;;;;;;;11.48;10.57;;;;;;;23.73;62.22;94896.63;5056013;28;20201;-69
2022/07/28 09:10:12;;;;;;;12.50;11.32;;;;;;;23.76;62.26;94904.19;5054491;28;20591;-69
2022/07/28 09:12:39;;;;;;;13.80;12.50;;;;;;;23.82;62.91;94903.66;5055051;28;20194;-69
2022/07/28 09:15:08;;;;;;;14.23;13.02;;;;;;;23.83;62.69;94896.81;5054836;28;20253;-69
2022/07/28 09:17:37;;;;;;;13.63;12.43;;;;;;;23.85;62.73;94897.91;5055131;28;20206;-70
2022/07/28 09:20:09;;;;;;;13.75;12.65;;;;;;;23.88;62.96;94899.84;5055005;28;20202;-70
2022/07/28 09:22:37;;;;;;;13.07;12.07;;;;;;;23.90;63.49;94894.56;5054328;28;20206;-69
2022/07/28 09:25:04;;;;;;;13.68;12.38;;;;;;;23.92;63.46;94894.13;5055447;28;20182;-70
2022/07/28 09:27:44;;;;;;;14.43;13.32;;;;;;;23.94;63.60;94886.81;5054302;28;20648;-70
2022/07/28 09:30:12;;;;;;;14.02;12.73;;;;;;;23.94;62.58;94871.94;5038227;28;20220;-70
2022/07/28 09:32:41;;;;;;;14.32;12.95;;;;;;;23.95;61.57;94882.75;5054565;28;20252;-70
2022/07/28 09:35:20;;;;;;;14.90;13.45;;;;;;;23.96;61.63;94887.16;5054360;28;20653;-70
2022/07/28 09:37:59;;;;;;;14.13;12.88;;;;;;;23.94;61.46;94889.63;5054784;28;20200;-70
2022/07/28 09:40:27;;;;;;;13.98;12.77;;;;;;;23.95;61.75;94885.56;5054340;28;20197;-70
2022/07/28 09:42:56;;;;;;;14.40;13.10;;;;;;;23.98;61.37;94879.06;5054546;28;20193;-69
2022/07/28 09:45:27;;;;;;;13.73;12.45;;;;;;;24.03;61.95;94874.91;5054819;28;20230;-69
2022/07/28 09:48:11;;;;;;;15.60;14.00;;;;;;;24.07;62.26;94889.66;5054542;28;20202;-69
2022/07/28 09:50:42;;;;;;;13.27;12.07;;;;;;;24.14;62.00;94894.31;5052247;28;20209;-70
2022/07/28 09:53:25;;;;;;;15.55;14.07;;;;;;;24.25;61.97;94904.03;5055082;28;20201;-70
2022/07/28 09:55:58;;;;;;;16.33;13.77;;;;;;;24.35;62.16;94895.75;5053710;28;20213;-70
2022/07/28 09:58:28;;;;;;;15.30;13.90;;;;;;;24.44;61.39;94893.88;5054473;28;20270;-70
2022/07/28 10:01:08;;;;;;;15.27;13.77;;;;;;;24.52;61.14;94897.28;5054163;28;20200;-70
2022/07/28 10:03:36;;;;;;;15.75;14.32;;;;;;;24.65;61.64;94894.47;5055457;28;20181;-70
2022/07/28 10:06:08;;;;;;;14.85;13.32;;;;;;;24.84;61.01;94893.50;5055147;28;20193;-70
2022/07/28 10:08:43;;;;;;;15.48;13.88;;;;;;;25.03;60.87;94891.69;5054915;28;20601;-70
2022/07/28 10:11:13;;;;;;;13.00;11.80;;;;;;;25.15;59.42;94890.91;5055053;28;20201;-70
2022/07/28 10:14:01;;;;;;;13.82;12.13;;;;;;;25.40;57.99;94884.47;5058489;28;20221;-70
2022/07/28 10:16:31;;;;;;;16.65;15.05;;;;;;;25.59;58.59;94888.25;5059076;28;20276;-70
2022/07/28 10:19:02;;;;;;;17.88;16.17;;;;;;;25.68;59.31;94887.56;5057936;28;20206;-70
2022/07/28 10:21:34;;;;;;;16.02;14.38;;;;;;;25.54;57.49;94891.66;5058459;28;20204;-70
2022/07/28 10:24:05;;;;;;;17.50;15.90;;;;;;;25.39;58.26;94884.91;5059429;28;20190;-69
2022/07/28 10:26:36;;;;;;;19.73;17.83;;;;;;;25.24;58.58;94880.97;5058943;28;20567;-70
2022/07/28 10:29:05;;;;;;;14.25;12.95;;;;;;;25.19;58.46;94882.34;5058183;28;20202;-70
2022/07/28 10:31:41;;;;;;;14.77;13.40;;;;;;;25.17;58.12;94876.38;5057959;28;20263;-70
2022/07/28 10:34:10;;;;;;;14.43;13.23;;;;;;;25.12;57.45;94876.91;5057962;28;20212;-70
2022/07/28 10:36:42;;;;;;;16.50;14.88;;;;;;;25.08;58.22;94881.88;5058322;28;20543;-70
2022/07/28 10:39:13;;;;;;;15.02;13.70;;;;;;;25.05;58.04;94877.13;5058833;28;20178;-71
2022/07/28 10:41:42;;;;;;;13.88;12.63;;;;;;;25.11;57.81;94872.53;5058880;28;20193;-70
2022/07/28 10:44:13;;;;;;;15.40;13.90;;;;;;;25.34;58.61;94874.97;5057596;28;20228;-70
2022/07/28 10:46:45;;;;;;;16.33;14.77;;;;;;;25.56;57.19;94872.22;5057481;28;20205;-70
2022/07/28 10:49:16;;;;;;;17.00;15.48;;;;;;;25.67;56.70;94869.84;5057695;28;20633;-70
2022/07/28 10:51:47;;;;;;;14.75;13.43;;;;;;;25.73;55.76;94864.38;5058302;28;20186;-70
2022/07/28 10:54:21;;;;;;;14.50;13.25;;;;;;;25.84;57.24;94853.53;5057547;28;20217;-71
2022/07/28 10:56:52;;;;;;;13.75;12.48;;;;;;;25.92;56.95;94852.00;5057502;28;20235;-70
2022/07/28 11:00:07;;;;;;;14.25;12.85;;;;;;;25.99;56.29;94844.53;5057567;28;20288;-70
2022/07/28 11:02:55;;;;;;;12.05;10.95;;;;;;;25.95;54.40;94852.34;5031242;28;20209;-68
2022/07/28 11:05:28;;;;;;;12.48;11.32;;;;;;;25.95;54.80;94843.88;5057839;28;20197;-67
2022/07/28 11:08:00;;;;;;;12.85;11.65;;;;;;;26.07;53.92;94843.03;5058625;28;20189;-67
2022/07/28 11:10:32;;;;;;;12.05;10.95;;;;;;;26.22;54.15;94843.28;5057583;28;20201;-67
2022/07/28 11:13:00;;;;;;;12.40;11.27;;;;;;;26.42;54.18;94836.03;5057756;28;20201;-67
2022/07/28 11:15:35;;;;;;;13.38;12.07;;;;;;;26.70;54.35;94832.63;5058574;28;20217;-70
2022/07/28 11:18:09;;;;;;;13.75;12.35;;;;;;;26.88;54.06;94822.16;5058607;28;20186;-70
2022/07/28 11:21:19;;;;;;;13.82;12.45;;;;;;;27.07;52.14;94820.19;5057688;28;20200;-69
2022/07/28 11:23:54;;;;;;;13.32;12.13;;;;;;;27.15;51.13;94800.91;5056520;28;20201;-69
2022/07/28 11:26:48;;;;;;;12.07;11.05;;;;;;;27.23;51.92;94796.50;5058301;28;20193;-69
2022/07/28 11:29:16;;;;;;;12.68;11.48;;;;;;;27.39;49.62;94792.63;5057057;28;20206;-69
2022/07/28 11:31:58;;;;;;;12.98;10.85;;;;;;;27.46;50.00;94788.69;5057516;28;20271;-69
2022/07/28 11:34:26;;;;;;;11.75;10.73;;;;;;;27.59;47.62;94789.31;5057628;28;20212;-68
2022/07/28 11:37:02;;;;;;;12.43;11.20;;;;;;;27.64;47.76;94782.25;5057284;28;20190;-68
2022/07/28 11:39:33;;;;;;;11.25;10.25;;;;;;;27.73;47.57;94780.19;5057232;28;20186;-69
2022/07/28 11:42:25;;;;;;;10.90;10.00;;;;;;;27.81;46.55;94781.47;5057672;28;20194;-69